Lindsay, MT (59339)

8:10 PM MDT on July 09, 2014 (GMT -0600)
Dawson Community (KGDV) Elev 2457 ft | 47.14 °N, 104.81 °W | Change Station

Current weather conditions updated 15 minutes ago

Clear
Clear
82 °F
Feels Like 82 °F
N
14
Wind Variable Wind from SE

Tomorrow is forecast to be nearly the same temperature as today.

Today
High -- | Low -- °F
--% Chance of Precip.
Yesterday
High -- | Low -- °F
Precip. -- in
5:14 AM 8:56 PM
Waxing Gibbous, 92% visible
Pressure 29.85 in
Visibility 10.0 miles
Clouds Clear
Dew Point 52 °F
Humidity 35%
Rainfall 0.00 in
Snow Depth Not available.
UV 0 out of 12
Pollen 5.20 out of 12
Air Quality Not available.
Flu Activity Sporadic
METAR KGDV 100155Z AUTO 13012KT 10SM CLR 28/11 A2985 RMK AO1

More Conditions Fewer Conditions

Pressure 29.85 in
Visibility 10.0 miles
Clouds Clear
Dew Point 52 °F
Humidity 35%
Rainfall 0.00 in
Snow Depth Not available.
UV 0 out of 12
Pollen 5.20 out of 12
Air Quality Not available.
Flu Activity Sporadic
METAR KGDV 100155Z AUTO 13012KT 10SM CLR 28/11 A2985 RMK AO1

More Conditions Fewer Conditions

10-Day Weather Forecast

Almanac

Astronomy

Jul. 09, 2014 Rise Set
Actual Time 5:14 AM MDT 8:56 PM MDT
Civil Twilight 4:35 AM MDT 9:35 PM MDT
Nautical Twilight 3:42 AM MDT 10:28 PM MDT
Astronomical Twilight 2:28 AM MDT 11:41 PM MDT
Moon 6:06 PM MDT (7/9) 2:41 AM MDT (7/9)
Length of Visible Light 17h 00m
Length of Day
15h 42m
Tomorrow will be 1m 28s shorter.
Waxing Gibbous, 92% of the Moon is Illuminated
Today
Waxing Gibbous
Jul 12
Full
Jul 18
Last Quarter
Jul 26
New
Aug 3
First Quarter

Today's Extremes

State Highs State Lows

Community

WunderPhotos

Upload Photos

1,732,033 photos uploaded!

Nearby

Snow Depth

Station Depth Elevation
Porcupine 0 in 6500 ft
White Mill 1 in 8700 ft
Northeast Entrance 1 in 7350 ft
Monument Peak 0 in 8850 ft
Shower Falls 0 in 8100 ft

Earthquake Activity

City Distance Mag. Time & Date
No recent earthquake activity has been reported nearby.
Minimum magnitude displayed is 2.5.

Coastal Water Temperatures

Place Temperature
No Stations Reporting

Nearby Weather Stations

Station Location Temp. Heat Index Dew Point Humidity Wind Precip. Elev Updated Type
MesoWest LINDSAY 1 , Lindsay, MT 82 °F 81 °F 48 °F 31% SE  at  8 mph 0.00 in / hr 2680 ft 7:00 PM MDT MADIS
SE Bloomfield, Bloomfield, MT 77.7 °F 79 °F 55 °F 46% ESE  at  9.0 mph 0.00 in / hr 2753 ft 8:10 PM MDT Rapid Fire
MesoWest BUFFALO RAPIDS/GLEND , Glendive, MT 89 °F 86 °F 50 °F 27% SSE  at  - 0.00 in / hr 2140 ft 6:45 PM MDT MADIS
MesoWest MID RIVERS CIRCLE , Circle, MT 84 °F 82 °F 50 °F 31% SE  at  7 mph 0.00 in / hr 2479 ft 6:55 PM MDT MADIS

Show More Stations Show Fewer Stations